sensor_id;sensor_type;location;lat;lon;timestamp;pressure;altitude;pressure_sealevel;temperature;humidity
25855;BME280;13680;49.936;11.344;2022-07-30T00:00:46;96676.72;;;19.37;83.82
25855;BME280;13680;49.936;11.344;2022-07-30T00:03:11;96676.28;;;19.15;84.98
25855;BME280;13680;49.936;11.344;2022-07-30T00:05:36;96671.22;;;19.17;84.56
25855;BME280;13680;49.936;11.344;2022-07-30T00:08:02;96675.91;;;19.17;84.05
25855;BME280;13680;49.936;11.344;2022-07-30T00:10:27;96688.50;;;19.05;85.10
25855;BME280;13680;49.936;11.344;2022-07-30T00:12:53;96687.94;;;19.16;84.75
25855;BME280;13680;49.936;11.344;2022-07-30T00:15:18;96693.97;;;19.05;84.88
25855;BME280;13680;49.936;11.344;2022-07-30T00:17:43;96709.00;;;18.99;85.16
25855;BME280;13680;49.936;11.344;2022-07-30T00:20:09;96709.72;;;18.96;84.61
25855;BME280;13680;49.936;11.344;2022-07-30T00:22:34;96710.00;;;18.91;84.57
25855;BME280;13680;49.936;11.344;2022-07-30T00:25:00;96709.47;;;19.01;84.47
25855;BME280;13680;49.936;11.344;2022-07-30T00:27:25;96710.16;;;18.98;83.35
25855;BME280;13680;49.936;11.344;2022-07-30T00:29:51;96701.72;;;18.87;83.42
25855;BME280;13680;49.936;11.344;2022-07-30T00:32:16;96713.88;;;18.90;82.80
25855;BME280;13680;49.936;11.344;2022-07-30T00:34:41;96707.00;;;18.96;82.78
25855;BME280;13680;49.936;11.344;2022-07-30T00:37:07;96716.41;;;18.99;82.12
25855;BME280;13680;49.936;11.344;2022-07-30T00:39:32;96710.59;;;19.00;81.65
25855;BME280;13680;49.936;11.344;2022-07-30T00:42:00;96715.59;;;18.98;81.78
25855;BME280;13680;49.936;11.344;2022-07-30T00:44:27;96710.66;;;18.88;82.34
25855;BME280;13680;49.936;11.344;2022-07-30T00:46:53;96722.47;;;18.92;82.51
25855;BME280;13680;49.936;11.344;2022-07-30T00:49:19;96716.59;;;18.90;82.67
25855;BME280;13680;49.936;11.344;2022-07-30T00:51:45;96723.94;;;18.89;83.08
25855;BME280;13680;49.936;11.344;2022-07-30T00:54:10;96716.13;;;18.88;83.72
25855;BME280;13680;49.936;11.344;2022-07-30T00:56:36;96731.53;;;18.96;83.96
25855;BME280;13680;49.936;11.344;2022-07-30T00:59:02;96736.84;;;19.08;83.63
25855;BME280;13680;49.936;11.344;2022-07-30T01:01:27;96735.56;;;19.02;84.08
25855;BME280;13680;49.936;11.344;2022-07-30T01:03:53;96742.06;;;18.97;84.94
25855;BME280;13680;49.936;11.344;2022-07-30T01:06:18;96741.34;;;19.01;84.77
25855;BME280;13680;49.936;11.344;2022-07-30T01:08:43;96744.44;;;18.99;84.69
25855;BME280;13680;49.936;11.344;2022-07-30T01:11:09;96753.94;;;19.05;84.55
25855;BME280;13680;49.936;11.344;2022-07-30T01:13:35;96743.47;;;19.07;84.30
25855;BME280;13680;49.936;11.344;2022-07-30T01:16:01;96745.03;;;19.08;84.23
25855;BME280;13680;49.936;11.344;2022-07-30T01:18:28;96738.03;;;19.07;84.56
25855;BME280;13680;49.936;11.344;2022-07-30T01:21:15;96739.66;;;19.12;84.29
25855;BME280;13680;49.936;11.344;2022-07-30T01:23:44;96739.56;;;19.08;84.00
25855;BME280;13680;49.936;11.344;2022-07-30T01:26:15;96740.75;;;19.07;83.57
25855;BME280;13680;49.936;11.344;2022-07-30T01:28:45;96729.13;;;19.10;83.33
25855;BME280;13680;49.936;11.344;2022-07-30T01:31:13;96730.69;;;19.11;83.07
25855;BME280;13680;49.936;11.344;2022-07-30T01:33:43;96725.25;;;19.11;82.63
25855;BME280;13680;49.936;11.344;2022-07-30T01:36:13;96727.91;;;19.08;82.72
25855;BME280;13680;49.936;11.344;2022-07-30T01:38:42;96731.34;;;19.05;82.80
25855;BME280;13680;49.936;11.344;2022-07-30T01:41:08;96723.34;;;18.96;82.64
25855;BME280;13680;49.936;11.344;2022-07-30T01:43:35;96717.81;;;18.92;82.23
25855;BME280;13680;49.936;11.344;2022-07-30T01:46:02;96710.00;;;18.91;81.89
25855;BME280;13680;49.936;11.344;2022-07-30T01:48:29;96716.03;;;18.84;81.49
25855;BME280;13680;49.936;11.344;2022-07-30T01:50:57;96722.84;;;18.74;81.76
25855;BME280;13680;49.936;11.344;2022-07-30T01:53:26;96714.13;;;18.69;81.45
25855;BME280;13680;49.936;11.344;2022-07-30T01:55:54;96721.06;;;18.66;81.54
25855;BME280;13680;49.936;11.344;2022-07-30T01:58:22;96711.59;;;18.60;81.84
25855;BME280;13680;49.936;11.344;2022-07-30T02:00:49;96710.03;;;18.59;82.02
25855;BME280;13680;49.936;11.344;2022-07-30T02:03:15;96709.13;;;18.55;82.26
25855;BME280;13680;49.936;11.344;2022-07-30T02:05:44;96706.59;;;18.46;83.78
25855;BME280;13680;49.936;11.344;2022-07-30T02:11:02;96706.88;;;18.57;82.58
25855;BME280;13680;49.936;11.344;2022-07-30T02:13:29;96704.75;;;18.50;83.13
25855;BME280;13680;49.936;11.344;2022-07-30T02:15:59;96706.00;;;18.53;83.34
25855;BME280;13680;49.936;11.344;2022-07-30T02:18:30;96704.06;;;18.53;83.09
25855;BME280;13680;49.936;11.344;2022-07-30T02:21:04;96697.47;;;18.54;82.62
25855;BME280;13680;49.936;11.344;2022-07-30T02:23:34;96706.69;;;18.49;82.92
25855;BME280;13680;49.936;11.344;2022-07-30T02:26:01;96701.09;;;18.42;82.97
25855;BME280;13680;49.936;11.344;2022-07-30T02:28:29;96709.25;;;18.42;82.94
25855;BME280;13680;49.936;11.344;2022-07-30T02:30:59;96707.94;;;18.36;82.17
25855;BME280;13680;49.936;11.344;2022-07-30T02:33:32;96708.63;;;18.33;82.52
25855;BME280;13680;49.936;11.344;2022-07-30T02:35:59;96710.06;;;18.27;82.94
25855;BME280;13680;49.936;11.344;2022-07-30T02:38:26;96705.28;;;18.24;83.26
25855;BME280;13680;49.936;11.344;2022-07-30T02:40:54;96707.75;;;18.29;84.13
25855;BME280;13680;49.936;11.344;2022-07-30T02:43:23;96702.50;;;18.36;84.07
25855;BME280;13680;49.936;11.344;2022-07-30T02:45:50;96702.03;;;18.34;84.31
25855;BME280;13680;49.936;11.344;2022-07-30T02:48:16;96700.91;;;18.35;84.18
25855;BME280;13680;49.936;11.344;2022-07-30T02:50:44;96703.34;;;18.40;84.85
25855;BME280;13680;49.936;11.344;2022-07-30T02:53:12;96702.22;;;18.41;84.72
25855;BME280;13680;49.936;11.344;2022-07-30T02:55:39;96702.66;;;18.43;85.17
25855;BME280;13680;49.936;11.344;2022-07-30T02:58:05;96697.28;;;18.47;85.06
25855;BME280;13680;49.936;11.344;2022-07-30T03:00:32;96700.63;;;18.40;85.29
25855;BME280;13680;49.936;11.344;2022-07-30T03:02:59;96697.28;;;18.47;84.86
25855;BME280;13680;49.936;11.344;2022-07-30T03:05:25;96695.09;;;18.53;84.54
25855;BME280;13680;49.936;11.344;2022-07-30T03:07:53;96692.56;;;18.44;84.45
25855;BME280;13680;49.936;11.344;2022-07-30T03:10:19;96693.59;;;18.39;84.83
25855;BME280;13680;49.936;11.344;2022-07-30T03:12:45;96689.38;;;18.42;84.67
25855;BME280;13680;49.936;11.344;2022-07-30T03:15:12;96691.97;;;18.35;84.18
25855;BME280;13680;49.936;11.344;2022-07-30T03:17:42;96694.41;;;18.24;84.67
25855;BME280;13680;49.936;11.344;2022-07-30T03:20:12;96700.09;;;18.19;84.92
25855;BME280;13680;49.936;11.344;2022-07-30T03:22:42;96700.28;;;18.26;84.94
25855;BME280;13680;49.936;11.344;2022-07-30T03:25:09;96698.72;;;18.25;84.98
25855;BME280;13680;49.936;11.344;2022-07-30T03:27:38;96705.19;;;18.20;85.14
25855;BME280;13680;49.936;11.344;2022-07-30T03:30:06;96711.25;;;18.13;85.81
25855;BME280;13680;49.936;11.344;2022-07-30T03:32:32;96713.00;;;18.22;85.51
25855;BME280;13680;49.936;11.344;2022-07-30T03:34:59;96714.59;;;18.23;85.00
25855;BME280;13680;49.936;11.344;2022-07-30T03:37:26;96713.19;;;18.13;84.62
25855;BME280;13680;49.936;11.344;2022-07-30T03:39:52;96716.25;;;18.11;85.14
25855;BME280;13680;49.936;11.344;2022-07-30T03:42:19;96711.06;;;18.06;86.40
25855;BME280;13680;49.936;11.344;2022-07-30T03:44:46;96719.47;;;18.01;86.62
25855;BME280;13680;49.936;11.344;2022-07-30T03:47:13;96722.03;;;18.10;86.47
25855;BME280;13680;49.936;11.344;2022-07-30T03:49:40;96721.53;;;18.04;85.90
25855;BME280;13680;49.936;11.344;2022-07-30T03:52:05;96724.41;;;18.11;85.90
25855;BME280;13680;49.936;11.344;2022-07-30T03:54:31;96726.88;;;18.16;85.48
25855;BME280;13680;49.936;11.344;2022-07-30T03:57:02;96723.09;;;18.21;84.98
25855;BME280;13680;49.936;11.344;2022-07-30T03:59:28;96729.34;;;18.22;85.10
25855;BME280;13680;49.936;11.344;2022-07-30T04:01:59;96726.03;;;18.28;84.93
25855;BME280;13680;49.936;11.344;2022-07-30T04:04:25;96721.19;;;18.38;85.24
25855;BME280;13680;49.936;11.344;2022-07-30T04:06:51;96725.75;;;18.34;85.12
25855;BME280;13680;49.936;11.344;2022-07-30T04:09:16;96722.88;;;18.42;84.92
25855;BME280;13680;49.936;11.344;2022-07-30T04:11:41;96734.88;;;18.41;84.07
25855;BME280;13680;49.936;11.344;2022-07-30T04:14:07;96734.81;;;18.54;83.18
25855;BME280;13680;49.936;11.344;2022-07-30T04:16:46;96745.16;;;18.48;83.26
25855;BME280;13680;49.936;11.344;2022-07-30T04:19:21;96758.97;;;18.55;83.61
25855;BME280;13680;49.936;11.344;2022-07-30T04:21:47;96756.06;;;18.64;82.97
25855;BME280;13680;49.936;11.344;2022-07-30T04:24:15;96751.75;;;18.63;83.33
25855;BME280;13680;49.936;11.344;2022-07-30T04:26:41;96761.56;;;18.36;84.56
25855;BME280;13680;49.936;11.344;2022-07-30T04:29:08;96768.53;;;18.65;82.94
25855;BME280;13680;49.936;11.344;2022-07-30T04:31:34;96767.19;;;18.75;82.29
25855;BME280;13680;49.936;11.344;2022-07-30T04:34:01;96763.97;;;18.69;81.91
25855;BME280;13680;49.936;11.344;2022-07-30T04:36:28;96770.09;;;18.66;82.44
25855;BME280;13680;49.936;11.344;2022-07-30T04:38:54;96778.13;;;18.59;82.54
25855;BME280;13680;49.936;11.344;2022-07-30T04:41:20;96771.06;;;18.74;82.03
25855;BME280;13680;49.936;11.344;2022-07-30T04:43:45;96776.59;;;18.77;81.83
25855;BME280;13680;49.936;11.344;2022-07-30T04:46:12;96776.78;;;18.85;81.83
25855;BME280;13680;49.936;11.344;2022-07-30T04:48:38;96776.59;;;18.77;82.27
25855;BME280;13680;49.936;11.344;2022-07-30T04:51:05;96781.50;;;18.88;82.01
25855;BME280;13680;49.936;11.344;2022-07-30T04:53:33;96782.88;;;18.94;81.80
25855;BME280;13680;49.936;11.344;2022-07-30T04:55:59;96792.06;;;19.05;81.80
25855;BME280;13680;49.936;11.344;2022-07-30T04:58:27;96791.53;;;19.16;81.48
25855;BME280;13680;49.936;11.344;2022-07-30T05:00:54;96793.53;;;19.19;80.66
25855;BME280;13680;49.936;11.344;2022-07-30T05:03:20;96792.94;;;19.25;80.45
25855;BME280;13680;49.936;11.344;2022-07-30T05:05:48;96787.97;;;19.31;79.73
25855;BME280;13680;49.936;11.344;2022-07-30T05:08:15;96787.31;;;19.18;79.32
25855;BME280;13680;49.936;11.344;2022-07-30T05:10:42;96788.78;;;19.32;78.79
25855;BME280;13680;49.936;11.344;2022-07-30T05:13:11;96773.19;;;19.32;78.95
25855;BME280;13680;49.936;11.344;2022-07-30T05:15:37;96784.03;;;19.28;78.34
25855;BME280;13680;49.936;11.344;2022-07-30T05:18:03;96783.75;;;19.34;78.18
25855;BME280;13680;49.936;11.344;2022-07-30T05:20:28;96778.53;;;19.44;78.49
25855;BME280;13680;49.936;11.344;2022-07-30T05:22:54;96768.28;;;19.57;78.12
25855;BME280;13680;49.936;11.344;2022-07-30T05:25:19;96778.38;;;19.57;77.97
25855;BME280;13680;49.936;11.344;2022-07-30T05:27:44;96769.41;;;19.76;76.90
25855;BME280;13680;49.936;11.344;2022-07-30T05:30:10;96772.97;;;19.76;76.30
25855;BME280;13680;49.936;11.344;2022-07-30T05:32:35;96769.81;;;19.94;75.79
25855;BME280;13680;49.936;11.344;2022-07-30T05:35:01;96759.25;;;20.12;74.76
25855;BME280;13680;49.936;11.344;2022-07-30T05:37:26;96774.88;;;20.15;73.71
25855;BME280;13680;49.936;11.344;2022-07-30T05:39:52;96768.03;;;20.25;73.09
25855;BME280;13680;49.936;11.344;2022-07-30T05:42:18;96764.41;;;20.40;73.13
25855;BME280;13680;49.936;11.344;2022-07-30T05:44:43;96766.41;;;20.43;73.29
25855;BME280;13680;49.936;11.344;2022-07-30T05:47:09;96761.19;;;20.58;72.03
25855;BME280;13680;49.936;11.344;2022-07-30T05:49:34;96765.06;;;20.57;71.70
25855;BME280;13680;49.936;11.344;2022-07-30T05:51:59;96767.34;;;20.74;71.22
25855;BME280;13680;49.936;11.344;2022-07-30T05:54:25;96761.34;;;20.92;71.01
25855;BME280;13680;49.936;11.344;2022-07-30T05:56:50;96759.31;;;20.85;71.43
25855;BME280;13680;49.936;11.344;2022-07-30T05:59:15;96769.78;;;21.06;70.18
25855;BME280;13680;49.936;11.344;2022-07-30T06:01:41;96760.25;;;20.97;70.94
25855;BME280;13680;49.936;11.344;2022-07-30T06:04:06;96768.59;;;21.07;70.04
25855;BME280;13680;49.936;11.344;2022-07-30T06:06:32;96766.50;;;20.97;70.26
25855;BME280;13680;49.936;11.344;2022-07-30T06:08:57;96773.72;;;20.82;70.10
25855;BME280;13680;49.936;11.344;2022-07-30T06:11:22;96775.97;;;21.30;69.05
25855;BME280;13680;49.936;11.344;2022-07-30T06:13:48;96781.97;;;21.70;67.89
25855;BME280;13680;49.936;11.344;2022-07-30T06:16:13;96784.81;;;21.20;68.87
25855;BME280;13680;49.936;11.344;2022-07-30T06:18:39;96783.13;;;21.38;68.63
25855;BME280;13680;49.936;11.344;2022-07-30T06:21:04;96783.53;;;21.14;69.28
25855;BME280;13680;49.936;11.344;2022-07-30T06:23:29;96784.03;;;20.92;68.01
25855;BME280;13680;49.936;11.344;2022-07-30T06:25:55;96782.63;;;20.79;68.82
25855;BME280;13680;49.936;11.344;2022-07-30T06:28:20;96777.66;;;20.85;69.74
25855;BME280;13680;49.936;11.344;2022-07-30T06:30:45;96773.25;;;21.03;69.73
25855;BME280;13680;49.936;11.344;2022-07-30T06:33:13;96768.72;;;21.15;69.48
25855;BME280;13680;49.936;11.344;2022-07-30T06:35:38;96758.16;;;21.13;68.73
25855;BME280;13680;49.936;11.344;2022-07-30T06:38:04;96753.53;;;21.48;69.09
25855;BME280;13680;49.936;11.344;2022-07-30T06:40:29;96755.47;;;21.78;67.07
25855;BME280;13680;49.936;11.344;2022-07-30T06:42:55;96760.63;;;21.83;65.91
25855;BME280;13680;49.936;11.344;2022-07-30T06:45:20;96768.91;;;21.29;67.38
25855;BME280;13680;49.936;11.344;2022-07-30T06:47:45;96760.09;;;21.39;68.19
25855;BME280;13680;49.936;11.344;2022-07-30T06:50:11;96766.28;;;21.36;68.61
25855;BME280;13680;49.936;11.344;2022-07-30T06:52:37;96770.72;;;21.18;67.92
25855;BME280;13680;49.936;11.344;2022-07-30T06:55:02;96768.09;;;21.25;67.79
25855;BME280;13680;49.936;11.344;2022-07-30T06:57:28;96775.41;;;20.67;70.79
25855;BME280;13680;49.936;11.344;2022-07-30T06:59:53;96782.41;;;21.15;69.41
25855;BME280;13680;49.936;11.344;2022-07-30T07:02:19;96785.63;;;20.97;71.42
25855;BME280;13680;49.936;11.344;2022-07-30T07:04:44;96789.84;;;20.68;70.53
25855;BME280;13680;49.936;11.344;2022-07-30T07:07:10;96784.69;;;20.86;70.48
25855;BME280;13680;49.936;11.344;2022-07-30T07:09:35;96777.81;;;20.96;70.39
25855;BME280;13680;49.936;11.344;2022-07-30T07:12:01;96781.34;;;21.23;69.50
25855;BME280;13680;49.936;11.344;2022-07-30T07:14:26;96776.38;;;21.59;67.99
25855;BME280;13680;49.936;11.344;2022-07-30T07:16:51;96773.91;;;21.81;66.26
25855;BME280;13680;49.936;11.344;2022-07-30T07:19:17;96779.19;;;22.34;65.42
25855;BME280;13680;49.936;11.344;2022-07-30T07:21:42;96782.13;;;22.52;63.90
25855;BME280;13680;49.936;11.344;2022-07-30T07:24:08;96776.81;;;21.95;65.90
25855;BME280;13680;49.936;11.344;2022-07-30T07:26:34;96778.91;;;21.71;66.02
25855;BME280;13680;49.936;11.344;2022-07-30T07:28:59;96779.88;;;21.90;66.78
25855;BME280;13680;49.936;11.344;2022-07-30T07:31:24;96776.84;;;21.99;65.49
25855;BME280;13680;49.936;11.344;2022-07-30T07:33:50;96774.31;;;22.17;65.56
25855;BME280;13680;49.936;11.344;2022-07-30T07:36:21;96769.25;;;22.60;64.52
25855;BME280;13680;49.936;11.344;2022-07-30T07:38:47;96772.84;;;23.16;62.61
25855;BME280;13680;49.936;11.344;2022-07-30T07:41:13;96772.94;;;23.27;61.74
25855;BME280;13680;49.936;11.344;2022-07-30T07:43:38;96774.41;;;22.65;62.71
25855;BME280;13680;49.936;11.344;2022-07-30T07:46:05;96772.53;;;22.35;63.90
25855;BME280;13680;49.936;11.344;2022-07-30T07:48:30;96777.72;;;21.72;66.65
25855;BME280;13680;49.936;11.344;2022-07-30T07:50:55;96774.91;;;21.65;68.96
25855;BME280;13680;49.936;11.344;2022-07-30T07:53:21;96785.56;;;22.08;66.66
25855;BME280;13680;49.936;11.344;2022-07-30T07:55:46;96792.84;;;22.68;65.17
25855;BME280;13680;49.936;11.344;2022-07-30T07:58:12;96788.38;;;23.01;64.82
25855;BME280;13680;49.936;11.344;2022-07-30T08:00:38;96782.81;;;23.43;61.26
25855;BME280;13680;49.936;11.344;2022-07-30T08:03:04;96796.84;;;23.30;61.06
25855;BME280;13680;49.936;11.344;2022-07-30T08:05:30;96789.88;;;23.44;60.12
25855;BME280;13680;49.936;11.344;2022-07-30T08:07:56;96797.63;;;23.27;62.21
25855;BME280;13680;49.936;11.344;2022-07-30T08:10:21;96794.22;;;22.96;62.13
25855;BME280;13680;49.936;11.344;2022-07-30T08:12:47;96790.25;;;22.86;62.43
25855;BME280;13680;49.936;11.344;2022-07-30T08:15:12;96792.84;;;23.17;61.77
25855;BME280;13680;49.936;11.344;2022-07-30T08:17:42;96800.72;;;23.26;62.60
25855;BME280;13680;49.936;11.344;2022-07-30T08:20:09;96796.25;;;23.03;61.66
25855;BME280;13680;49.936;11.344;2022-07-30T08:22:34;96803.41;;;23.15;61.70
25855;BME280;13680;49.936;11.344;2022-07-30T08:25:00;96796.59;;;23.01;61.56
25855;BME280;13680;49.936;11.344;2022-07-30T08:27:25;96803.03;;;23.16;62.75
25855;BME280;13680;49.936;11.344;2022-07-30T08:29:50;96801.50;;;23.96;61.15
25855;BME280;13680;49.936;11.344;2022-07-30T08:32:16;96794.97;;;24.48;56.90
25855;BME280;13680;49.936;11.344;2022-07-30T08:34:41;96799.75;;;24.73;57.32
25855;BME280;13680;49.936;11.344;2022-07-30T08:37:06;96811.66;;;23.18;59.55
25855;BME280;13680;49.936;11.344;2022-07-30T08:39:32;96812.25;;;22.52;61.23
25855;BME280;13680;49.936;11.344;2022-07-30T08:41:57;96807.59;;;23.57;59.85
25855;BME280;13680;49.936;11.344;2022-07-30T08:44:23;96807.09;;;24.18;57.93
25855;BME280;13680;49.936;11.344;2022-07-30T08:46:50;96808.38;;;24.93;55.08
25855;BME280;13680;49.936;11.344;2022-07-30T08:49:20;96816.97;;;24.51;55.91
25855;BME280;13680;49.936;11.344;2022-07-30T08:51:48;96819.69;;;24.48;57.93
25855;BME280;13680;49.936;11.344;2022-07-30T08:54:13;96837.69;;;24.20;57.28
25855;BME280;13680;49.936;11.344;2022-07-30T08:56:40;96830.31;;;24.53;56.05
25855;BME280;13680;49.936;11.344;2022-07-30T08:59:06;96839.03;;;24.91;55.63
25855;BME280;13680;49.936;11.344;2022-07-30T09:01:31;96846.00;;;24.34;55.82
25855;BME280;13680;49.936;11.344;2022-07-30T09:03:57;96848.81;;;24.60;54.08
25855;BME280;13680;49.936;11.344;2022-07-30T09:06:22;96845.59;;;24.36;56.24
25855;BME280;13680;49.936;11.344;2022-07-30T09:08:47;96846.44;;;23.66;56.82
25855;BME280;13680;49.936;11.344;2022-07-30T09:11:13;96846.00;;;24.42;56.17
25855;BME280;13680;49.936;11.344;2022-07-30T09:13:40;96848.06;;;24.84;53.87
25855;BME280;13680;49.936;11.344;2022-07-30T09:16:06;96852.97;;;24.10;55.05
25855;BME280;13680;49.936;11.344;2022-07-30T09:18:42;96844.63;;;23.22;56.26
25855;BME280;13680;49.936;11.344;2022-07-30T09:21:26;96856.03;;;23.94;55.32
25855;BME280;13680;49.936;11.344;2022-07-30T09:26:51;96861.34;;;24.50;54.66
25855;BME280;13680;49.936;11.344;2022-07-30T09:29:19;96860.56;;;24.53;54.26
25855;BME280;13680;49.936;11.344;2022-07-30T09:32:03;96856.25;;;24.63;53.73
25855;BME280;13680;49.936;11.344;2022-07-30T09:34:38;96856.25;;;24.63;55.20
25855;BME280;13680;49.936;11.344;2022-07-30T09:39:40;96860.28;;;25.12;52.65
25855;BME280;13680;49.936;11.344;2022-07-30T09:42:20;96859.06;;;25.03;50.93
25855;BME280;13680;49.936;11.344;2022-07-30T09:44:46;96859.09;;;25.10;52.03
25855;BME280;13680;49.936;11.344;2022-07-30T09:47:41;96868.72;;;24.21;53.90
25855;BME280;13680;49.936;11.344;2022-07-30T09:50:13;96863.16;;;24.06;53.87
25855;BME280;13680;49.936;11.344;2022-07-30T09:52:43;96864.81;;;24.32;53.45
25855;BME280;13680;49.936;11.344;2022-07-30T09:55:11;96870.06;;;23.78;55.42
25855;BME280;13680;49.936;11.344;2022-07-30T09:58:04;96853.84;;;24.40;54.52
25855;BME280;13680;49.936;11.344;2022-07-30T10:00:31;96854.78;;;23.88;55.18
25855;BME280;13680;49.936;11.344;2022-07-30T10:02:57;96861.28;;;23.54;56.79
25855;BME280;13680;49.936;11.344;2022-07-30T10:05:25;96855.84;;;23.10;57.18
25855;BME280;13680;49.936;11.344;2022-07-30T10:07:55;96852.19;;;24.10;54.94
25855;BME280;13680;49.936;11.344;2022-07-30T10:10:24;96850.50;;;23.87;54.53
25855;BME280;13680;49.936;11.344;2022-07-30T10:12:52;96848.38;;;24.43;53.58
25855;BME280;13680;49.936;11.344;2022-07-30T10:15:23;96845.72;;;25.37;52.50
25855;BME280;13680;49.936;11.344;2022-07-30T10:17:52;96841.41;;;25.32;51.60
25855;BME280;13680;49.936;11.344;2022-07-30T10:20:18;96842.09;;;25.80;51.43
25855;BME280;13680;49.936;11.344;2022-07-30T10:22:44;96841.38;;;25.54;49.18
25855;BME280;13680;49.936;11.344;2022-07-30T10:25:09;96828.34;;;25.73;49.13
25855;BME280;13680;49.936;11.344;2022-07-30T10:27:36;96835.03;;;25.72;48.21
25855;BME280;13680;49.936;11.344;2022-07-30T10:30:03;96823.59;;;25.80;49.73
25855;BME280;13680;49.936;11.344;2022-07-30T10:32:30;96818.94;;;26.52;47.69
25855;BME280;13680;49.936;11.344;2022-07-30T10:34:57;96825.41;;;26.87;47.60
25855;BME280;13680;49.936;11.344;2022-07-30T10:37:24;96820.09;;;27.14;43.94
25855;BME280;13680;49.936;11.344;2022-07-30T10:39:55;96823.50;;;26.13;47.20
25855;BME280;13680;49.936;11.344;2022-07-30T10:45:15;96821.69;;;26.55;44.57
25855;BME280;13680;49.936;11.344;2022-07-30T10:47:44;96825.53;;;25.87;46.28
25855;BME280;13680;49.936;11.344;2022-07-30T10:50:16;96809.81;;;25.84;47.19
25855;BME280;13680;49.936;11.344;2022-07-30T10:52:48;96819.59;;;26.00;47.06
25855;BME280;13680;49.936;11.344;2022-07-30T10:55:25;96815.72;;;26.64;45.58
25855;BME280;13680;49.936;11.344;2022-07-30T11:00:31;96816.13;;;27.19;44.08
25855;BME280;13680;49.936;11.344;2022-07-30T11:03:15;96819.25;;;27.97;44.46
25855;BME280;13680;49.936;11.344;2022-07-30T11:05:41;96820.44;;;28.58;42.85
25855;BME280;13680;49.936;11.344;2022-07-30T11:08:37;96828.13;;;28.74;42.04
25855;BME280;13680;49.936;11.344;2022-07-30T11:11:05;96817.59;;;28.07;42.01
25855;BME280;13680;49.936;11.344;2022-07-30T11:13:55;96820.09;;;27.14;44.13
25855;BME280;13680;49.936;11.344;2022-07-30T11:19:16;96820.13;;;28.52;42.13
25855;BME280;13680;49.936;11.344;2022-07-30T11:22:27;96819.66;;;28.30;41.65
25855;BME280;13680;49.936;11.344;2022-07-30T11:24:55;96821.91;;;28.39;44.13
25855;BME280;13680;49.936;11.344;2022-07-30T11:27:39;96819.78;;;28.19;42.16
25855;BME280;13680;49.936;11.344;2022-07-30T11:32:54;96825.25;;;28.23;42.73
25855;BME280;13680;49.936;11.344;2022-07-30T11:35:22;96831.81;;;27.25;45.03
25855;BME280;13680;49.936;11.344;2022-07-30T11:40:30;96818.56;;;26.50;45.83
25855;BME280;13680;49.936;11.344;2022-07-30T11:46:15;96818.38;;;27.27;45.31
25855;BME280;13680;49.936;11.344;2022-07-30T11:48:58;96820.69;;;27.33;44.85
25855;BME280;13680;49.936;11.344;2022-07-30T11:51:24;96807.56;;;27.82;44.22
25855;BME280;13680;49.936;11.344;2022-07-30T11:54:04;96813.25;;;27.30;44.53
25855;BME280;13680;49.936;11.344;2022-07-30T11:56:30;96818.00;;;27.29;44.66
25855;BME280;13680;49.936;11.344;2022-07-30T11:59:05;96812.06;;;27.31;45.08
25855;BME280;13680;49.936;11.344;2022-07-30T12:01:32;96811.88;;;27.52;42.21
25855;BME280;13680;49.936;11.344;2022-07-30T12:04:02;96805.84;;;27.19;43.43
25855;BME280;13680;49.936;11.344;2022-07-30T12:06:28;96804.38;;;27.07;42.02
25855;BME280;13680;49.936;11.344;2022-07-30T12:08:56;96805.81;;;27.23;42.97
25855;BME280;13680;49.936;11.344;2022-07-30T12:11:22;96801.91;;;26.68;43.84
25855;BME280;13680;49.936;11.344;2022-07-30T12:14:05;96799.63;;;27.08;44.63
25855;BME280;13680;49.936;11.344;2022-07-30T12:16:31;96807.56;;;27.48;41.45
25855;BME280;13680;49.936;11.344;2022-07-30T12:19:04;96801.56;;;27.11;43.20
25855;BME280;13680;49.936;11.344;2022-07-30T12:21:30;96802.84;;;26.43;42.88
25855;BME280;13680;49.936;11.344;2022-07-30T12:23:57;96813.16;;;26.32;44.52
25855;BME280;13680;49.936;11.344;2022-07-30T12:26:26;96820.84;;;25.80;50.40
25855;BME280;13680;49.936;11.344;2022-07-30T12:28:54;96824.06;;;25.57;51.21
25855;BME280;13680;49.936;11.344;2022-07-30T12:31:20;96820.53;;;25.53;52.65
25855;BME280;13680;49.936;11.344;2022-07-30T12:33:45;96823.69;;;25.44;55.53
25855;BME280;13680;49.936;11.344;2022-07-30T12:36:23;96837.06;;;25.24;57.27
25855;BME280;13680;49.936;11.344;2022-07-30T12:38:50;96834.31;;;25.42;52.92
25855;BME280;13680;49.936;11.344;2022-07-30T12:41:16;96835.47;;;25.30;54.45
25855;BME280;13680;49.936;11.344;2022-07-30T12:46:14;96830.28;;;25.83;57.93
25855;BME280;13680;49.936;11.344;2022-07-30T12:49:02;96824.81;;;25.65;59.81
25855;BME280;13680;49.936;11.344;2022-07-30T12:51:33;96831.13;;;25.62;57.85
25855;BME280;13680;49.936;11.344;2022-07-30T12:54:01;96820.03;;;25.87;53.72
25855;BME280;13680;49.936;11.344;2022-07-30T12:56:29;96819.22;;;25.97;53.87
25855;BME280;13680;49.936;11.344;2022-07-30T12:58:58;96826.03;;;25.57;58.36
25855;BME280;13680;49.936;11.344;2022-07-30T13:01:43;96821.72;;;25.59;56.14
25855;BME280;13680;49.936;11.344;2022-07-30T13:04:09;96820.13;;;25.62;55.98
25855;BME280;13680;49.936;11.344;2022-07-30T13:06:35;96821.66;;;25.70;53.54
25855;BME280;13680;49.936;11.344;2022-07-30T13:09:03;96826.75;;;25.72;55.08
25855;BME280;13680;49.936;11.344;2022-07-30T13:11:38;96827.94;;;25.74;54.32
25855;BME280;13680;49.936;11.344;2022-07-30T13:14:04;96837.78;;;25.72;54.68
25855;BME280;13680;49.936;11.344;2022-07-30T13:16:31;96832.69;;;25.70;55.01
25855;BME280;13680;49.936;11.344;2022-07-30T13:18:57;96842.16;;;25.47;52.30
25855;BME280;13680;49.936;11.344;2022-07-30T13:21:22;96843.38;;;25.43;53.50